createdAt,value
2019-04-30T00:01:15.214Z,17.80
2019-04-30T00:03:43.442Z,19.53
2019-04-30T00:06:12.839Z,19.13
2019-04-30T00:08:42.226Z,18.07
2019-04-30T00:11:16.045Z,19.67
2019-04-30T00:13:43.293Z,19.77
2019-04-30T00:16:12.747Z,19.70
2019-04-30T00:18:55.189Z,20.87
2019-04-30T00:21:15.064Z,19.53
2019-04-30T00:23:45.921Z,20.73
2019-04-30T00:26:17.181Z,21.27
2019-04-30T00:28:47.873Z,21.93
2019-04-30T00:31:23.470Z,21.90
2019-04-30T00:33:48.414Z,21.73
2019-04-30T00:36:18.168Z,21.23
2019-04-30T00:38:47.558Z,22.10
2019-04-30T00:41:16.920Z,21.37
2019-04-30T00:43:49.351Z,21.40
2019-04-30T00:46:25.294Z,23.13
2019-04-30T00:48:48.578Z,22.10
2019-04-30T00:51:21.008Z,22.17
2019-04-30T00:53:51.396Z,23.23
2019-04-30T00:56:26.429Z,22.77
2019-04-30T00:58:51.550Z,22.40
2019-04-30T01:01:25.440Z,19.47
2019-04-30T01:03:57.564Z,22.87
2019-04-30T01:06:28.662Z,22.63
2019-04-30T01:09:04.872Z,22.13
2019-04-30T01:11:29.385Z,22.03
2019-04-30T01:13:59.166Z,22.63
2019-04-30T01:16:32.908Z,22.07
2019-04-30T01:19:01.014Z,22.37
2019-04-30T01:21:31.012Z,21.33
2019-04-30T01:24:00.473Z,21.63
2019-04-30T01:26:31.143Z,20.17
2019-04-30T01:29:02.197Z,20.50
2019-04-30T01:31:37.514Z,21.20
2019-04-30T01:34:05.238Z,20.50
2019-04-30T01:36:33.883Z,21.10
2019-04-30T01:39:03.529Z,20.70
2019-04-30T01:41:32.917Z,21.67
2019-04-30T01:44:03.770Z,21.33
2019-04-30T01:46:33.496Z,21.13
2019-04-30T01:49:02.972Z,20.50
2019-04-30T01:51:32.354Z,22.50
2019-04-30T01:54:01.806Z,20.73
2019-04-30T01:56:39.034Z,19.60
2019-04-30T01:59:12.796Z,20.50
2019-04-30T02:01:43.829Z,20.27
2019-04-30T02:04:13.265Z,19.67
2019-04-30T02:06:42.652Z,19.57
2019-04-30T02:09:12.027Z,19.20
2019-04-30T02:11:41.402Z,21.00
2019-04-30T02:14:10.883Z,20.60
2019-04-30T02:16:40.246Z,19.03
2019-04-30T02:19:09.696Z,19.63
2019-04-30T02:21:39.177Z,20.17
2019-04-30T02:24:11.064Z,20.23
2019-04-30T02:26:39.743Z,20.03
2019-04-30T02:29:09.255Z,22.00
2019-04-30T02:31:40.777Z,20.13
2019-04-30T02:34:11.397Z,21.67
2019-04-30T02:36:42.422Z,21.73
2019-04-30T02:39:11.901Z,21.60
2019-04-30T02:41:42.005Z,19.73
2019-04-30T02:44:13.071Z,21.93
2019-04-30T02:46:44.167Z,21.57
2019-04-30T02:49:15.069Z,20.00
2019-04-30T02:51:49.740Z,21.87
2019-04-30T02:54:23.947Z,22.30
2019-04-30T02:56:54.754Z,21.80
2019-04-30T02:59:24.161Z,21.13
2019-04-30T03:01:53.589Z,21.70
2019-04-30T03:04:23.038Z,20.47
2019-04-30T03:06:52.451Z,20.77
2019-04-30T03:09:21.849Z,20.43
2019-04-30T03:11:51.227Z,20.60
2019-04-30T03:14:20.604Z,21.07
2019-04-30T03:17:10.162Z,22.30
2019-04-30T03:19:45.905Z,21.40
2019-04-30T03:22:16.935Z,21.50
2019-04-30T03:24:46.319Z,21.37
2019-04-30T03:27:15.698Z,21.47
2019-04-30T03:29:45.167Z,22.40
2019-04-30T03:32:14.714Z,21.83
2019-04-30T03:34:44.095Z,21.73
2019-04-30T03:37:13.778Z,21.67
2019-04-30T03:39:43.189Z,22.97
2019-04-30T03:42:12.766Z,22.20
2019-04-30T03:44:42.137Z,20.73
2019-04-30T03:47:11.557Z,22.07
2019-04-30T03:49:40.947Z,21.33
2019-04-30T03:52:13.404Z,20.60
2019-04-30T03:54:41.462Z,21.67
2019-04-30T03:57:11.110Z,21.90
2019-04-30T03:59:40.867Z,21.50
2019-04-30T04:02:14.675Z,22.60
2019-04-30T04:04:54.975Z,21.47
2019-04-30T04:07:39.464Z,22.10
2019-04-30T04:10:13.957Z,22.23
2019-04-30T04:12:43.391Z,22.33
2019-04-30T04:15:13.063Z,23.00
2019-04-30T04:17:42.467Z,22.83
2019-04-30T04:20:12.584Z,22.93
2019-04-30T04:22:41.968Z,20.50
2019-04-30T04:25:13.190Z,22.37
2019-04-30T04:27:43.009Z,23.17
2019-04-30T04:30:12.807Z,22.87
2019-04-30T04:32:42.336Z,23.27
2019-04-30T04:35:12.828Z,23.10
2019-04-30T04:37:42.436Z,23.37
2019-04-30T04:40:12.317Z,24.37
2019-04-30T04:42:41.705Z,23.13
2019-04-30T04:45:11.175Z,22.47
2019-04-30T04:47:40.576Z,23.80
2019-04-30T04:50:10.705Z,24.30
2019-04-30T04:52:40.060Z,24.40
2019-04-30T04:55:10.258Z,23.53
2019-04-30T04:57:40.158Z,24.93
2019-04-30T05:00:10.906Z,24.73
2019-04-30T05:02:44.757Z,23.57
2019-04-30T05:05:14.196Z,23.60
2019-04-30T05:07:43.580Z,21.50
2019-04-30T05:10:13.874Z,22.67
2019-04-30T05:12:43.259Z,23.37
2019-04-30T05:15:13.066Z,23.53
2019-04-30T05:17:42.457Z,23.40
2019-04-30T05:20:12.053Z,23.60
2019-04-30T05:22:41.436Z,23.83
2019-04-30T05:25:11.312Z,24.43
2019-04-30T05:27:40.701Z,24.93
2019-04-30T05:30:12.323Z,23.67
2019-04-30T05:32:41.795Z,24.70
2019-04-30T05:35:11.321Z,23.90
2019-04-30T05:37:40.682Z,23.63
2019-04-30T05:40:10.961Z,15.27
2019-04-30T05:42:40.385Z,22.13
2019-04-30T05:45:11.470Z,16.80
2019-04-30T05:47:40.851Z,23.80
2019-04-30T05:50:10.917Z,22.90
2019-04-30T05:52:40.322Z,19.57
2019-04-30T05:55:10.623Z,23.63
2019-04-30T05:57:52.767Z,23.03
2019-04-30T06:00:12.243Z,21.93
2019-04-30T06:02:41.803Z,21.67
2019-04-30T06:05:11.394Z,22.03
2019-04-30T06:07:40.909Z,12.77
2019-04-30T06:10:29.437Z,18.90
2019-04-30T06:13:03.386Z,22.17
2019-04-30T06:15:34.573Z,22.50
2019-04-30T06:18:12.812Z,22.03
2019-04-30T06:20:35.348Z,21.50
2019-04-30T06:23:04.885Z,21.10
2019-04-30T06:25:52.954Z,17.17
2019-04-30T06:28:05.793Z,22.00
2019-04-30T06:30:35.792Z,20.13
2019-04-30T06:33:05.308Z,21.80
2019-04-30T06:35:34.903Z,21.50
2019-04-30T06:38:04.536Z,21.37
2019-04-30T06:40:34.129Z,19.77
2019-04-30T06:43:03.768Z,22.43
2019-04-30T06:45:35.001Z,22.70
2019-04-30T06:48:06.004Z,22.40
2019-04-30T06:50:35.522Z,21.67
2019-04-30T06:53:05.191Z,22.97
2019-04-30T06:55:34.625Z,21.80
2019-04-30T06:58:12.860Z,21.47
2019-04-30T07:00:39.962Z,20.80
2019-04-30T07:03:09.937Z,21.50
2019-04-30T07:05:39.463Z,20.10
2019-04-30T07:08:37.347Z,20.83
2019-04-30T07:11:15.630Z,19.97
2019-04-30T07:13:46.743Z,20.90
2019-04-30T07:16:16.141Z,19.80
2019-04-30T07:18:45.601Z,19.87
2019-04-30T07:21:15.096Z,19.87
2019-04-30T07:23:44.484Z,19.90
2019-04-30T07:26:22.757Z,19.67
2019-04-30T07:28:51.839Z,19.57
2019-04-30T07:31:16.159Z,18.57
2019-04-30T07:33:50.414Z,15.73
2019-04-30T07:36:16.726Z,19.77
2019-04-30T07:38:53.732Z,19.03
2019-04-30T07:41:18.972Z,19.77
2019-04-30T07:43:49.371Z,20.47
2019-04-30T07:46:19.936Z,19.00
2019-04-30T07:48:50.158Z,18.80
2019-04-30T07:51:21.185Z,19.43
2019-04-30T07:53:50.899Z,19.93
2019-04-30T07:56:28.092Z,21.03
2019-04-30T07:58:51.414Z,20.00
2019-04-30T08:01:20.885Z,21.07
2019-04-30T08:04:08.680Z,21.23
2019-04-30T08:06:39.731Z,19.03
2019-04-30T08:09:11.038Z,19.93
2019-04-30T08:11:43.443Z,17.67
2019-04-30T08:14:11.535Z,18.33
2019-04-30T08:16:40.940Z,18.33
2019-04-30T08:19:10.337Z,19.20
2019-04-30T08:21:39.783Z,18.07
2019-04-30T08:24:09.366Z,19.33
2019-04-30T08:26:39.736Z,18.53
2019-04-30T08:29:09.686Z,19.20
2019-04-30T08:31:40.841Z,17.00
2019-04-30T08:34:10.883Z,17.33
2019-04-30T08:36:40.576Z,18.13
2019-04-30T08:39:10.117Z,12.33
2019-04-30T08:41:39.495Z,16.63
2019-04-30T08:44:09.495Z,15.03
2019-04-30T08:46:39.029Z,14.93
2019-04-30T08:49:09.763Z,14.13
2019-04-30T08:51:40.057Z,12.20
2019-04-30T08:54:09.915Z,10.97
2019-04-30T08:56:39.300Z,12.43
2019-04-30T08:59:11.101Z,12.87
2019-04-30T09:01:40.085Z,11.73
2019-04-30T09:04:10.480Z,10.73
2019-04-30T09:06:40.175Z,13.50
2019-04-30T09:09:11.481Z,15.63
2019-04-30T09:11:51.691Z,12.80
2019-04-30T09:14:13.011Z,12.83
2019-04-30T09:16:42.428Z,13.20
2019-04-30T09:19:11.855Z,12.97
2019-04-30T09:21:41.243Z,14.50
2019-04-30T09:24:10.643Z,10.80
2019-04-30T09:26:40.073Z,10.30
2019-04-30T09:29:09.537Z,10.27
2019-04-30T09:31:40.775Z,10.67
2019-04-30T09:34:17.008Z,13.10
2019-04-30T09:36:41.122Z,12.77
2019-04-30T09:39:10.722Z,12.20
2019-04-30T09:41:41.178Z,12.07
2019-04-30T09:44:10.676Z,11.83
2019-04-30T09:46:40.090Z,11.70
2019-04-30T09:49:09.725Z,10.67
2019-04-30T09:51:39.993Z,9.57
2019-04-30T09:54:12.387Z,10.63
2019-04-30T09:56:40.984Z,11.43
2019-04-30T09:59:10.470Z,12.27
2019-04-30T10:01:39.979Z,10.97
2019-04-30T10:04:10.467Z,12.57
2019-04-30T10:06:40.460Z,12.30
2019-04-30T10:09:12.795Z,10.07
2019-04-30T10:11:59.638Z,9.77
2019-04-30T10:14:29.184Z,9.70
2019-04-30T10:17:16.288Z,10.20
2019-04-30T10:19:45.678Z,9.07
2019-04-30T10:22:15.137Z,10.10
2019-04-30T10:24:44.610Z,10.50
2019-04-30T10:27:14.023Z,9.03
2019-04-30T10:29:43.523Z,10.27
2019-04-30T10:32:12.971Z,9.80
2019-04-30T10:34:42.379Z,9.00
2019-04-30T10:37:11.968Z,9.17
2019-04-30T10:39:41.481Z,8.90
2019-04-30T10:42:10.858Z,9.00
2019-04-30T10:44:40.255Z,5.13
2019-04-30T10:47:09.700Z,9.57
2019-04-30T10:49:39.155Z,9.57
2019-04-30T10:52:09.314Z,11.47
2019-04-30T10:54:39.080Z,9.70
2019-04-30T10:57:08.820Z,11.00
2019-04-30T10:59:38.501Z,10.80
2019-04-30T11:02:09.052Z,11.07
2019-04-30T11:04:38.747Z,11.07
2019-04-30T11:07:08.703Z,10.13
2019-04-30T11:09:39.362Z,10.07
2019-04-30T11:12:10.904Z,9.93
2019-04-30T11:14:40.459Z,9.90
2019-04-30T11:17:10.277Z,10.20
2019-04-30T11:19:40.070Z,9.37
2019-04-30T11:22:09.684Z,11.10
2019-04-30T11:24:54.937Z,10.10
2019-04-30T11:27:11.513Z,9.40
2019-04-30T11:29:41.552Z,10.30
2019-04-30T11:32:18.661Z,9.83
2019-04-30T11:34:48.564Z,9.87
2019-04-30T11:37:18.102Z,9.07
2019-04-30T11:39:47.626Z,9.80
2019-04-30T11:42:17.133Z,10.20
2019-04-30T11:44:48.368Z,8.57
2019-04-30T11:47:24.604Z,10.77
2019-04-30T11:49:54.285Z,10.17
2019-04-30T11:52:23.963Z,10.50
2019-04-30T11:54:54.602Z,11.10
2019-04-30T11:57:24.339Z,11.60
2019-04-30T11:59:53.874Z,9.70
2019-04-30T12:02:25.332Z,11.03
2019-04-30T12:04:54.743Z,11.20
2019-04-30T12:07:25.842Z,10.80
2019-04-30T12:09:59.639Z,11.03
2019-04-30T12:12:29.095Z,10.07
2019-04-30T12:15:01.079Z,9.07
2019-04-30T12:17:29.647Z,10.30
2019-04-30T12:19:59.119Z,9.70
2019-04-30T12:22:29.608Z,9.90
2019-04-30T12:25:03.345Z,4.03
2019-04-30T12:27:30.340Z,8.80
2019-04-30T12:30:02.395Z,9.17
2019-04-30T12:32:31.796Z,9.03
2019-04-30T12:35:01.201Z,8.05
2019-04-30T12:37:30.585Z,8.03
2019-04-30T12:39:59.989Z,9.40
2019-04-30T12:42:29.377Z,9.60
2019-04-30T12:44:59.484Z,9.00
2019-04-30T12:47:30.515Z,8.60
2019-04-30T12:50:01.641Z,9.03
2019-04-30T12:52:44.326Z,7.40
2019-04-30T12:55:19.962Z,7.83
2019-04-30T12:57:58.838Z,6.97
2019-04-30T13:00:22.695Z,8.30
2019-04-30T13:02:52.156Z,8.50
2019-04-30T13:05:21.889Z,8.57
2019-04-30T13:07:51.858Z,8.23
2019-04-30T13:10:22.692Z,9.37
2019-04-30T13:12:53.116Z,8.87
2019-04-30T13:15:22.763Z,9.23
2019-04-30T13:17:52.164Z,8.53
2019-04-30T13:20:24.115Z,8.23
2019-04-30T13:22:52.730Z,8.37
2019-04-30T13:25:32.402Z,8.60
2019-04-30T13:27:54.980Z,8.10
2019-04-30T13:30:26.118Z,8.73
2019-04-30T13:33:02.942Z,9.40
2019-04-30T13:35:32.387Z,7.60
2019-04-30T13:38:21.584Z,8.18
2019-04-30T13:41:08.882Z,8.67
2019-04-30T13:43:54.734Z,7.17
2019-04-30T13:46:24.905Z,9.00
2019-04-30T13:48:54.297Z,9.37
2019-04-30T13:51:23.731Z,9.45
2019-04-30T13:53:53.154Z,8.65
2019-04-30T13:56:25.397Z,8.73
2019-04-30T13:58:54.843Z,9.05
2019-04-30T14:01:24.201Z,9.13
2019-04-30T14:03:58.988Z,7.60
2019-04-30T14:06:30.228Z,9.15
2019-04-30T14:09:16.303Z,9.07
2019-04-30T14:11:45.691Z,8.50
2019-04-30T14:14:15.142Z,8.13
2019-04-30T14:16:44.694Z,9.33
2019-04-30T14:19:14.164Z,9.23
2019-04-30T14:21:43.699Z,8.93
2019-04-30T14:24:13.159Z,8.75
2019-04-30T14:26:42.610Z,8.88
2019-04-30T14:29:11.985Z,10.18
2019-04-30T14:31:41.478Z,6.22
2019-04-30T14:34:10.876Z,9.63
2019-04-30T14:36:40.256Z,9.23
2019-04-30T14:39:14.524Z,9.15
2019-04-30T14:41:41.738Z,8.58
2019-04-30T14:44:13.788Z,8.80
2019-04-30T14:46:45.365Z,8.05
2019-04-30T14:49:17.215Z,7.95
2019-04-30T14:51:48.996Z,9.28
2019-04-30T14:54:20.311Z,10.23
2019-04-30T14:56:59.271Z,9.60
2019-04-30T14:59:39.092Z,10.13
2019-04-30T15:02:13.376Z,10.28
2019-04-30T15:04:42.750Z,9.98
2019-04-30T15:07:12.161Z,9.90
2019-04-30T15:09:41.568Z,10.13
2019-04-30T15:12:10.957Z,10.53
2019-04-30T15:14:41.048Z,10.43
2019-04-30T15:17:10.517Z,9.00
2019-04-30T15:19:40.151Z,10.00
2019-04-30T15:22:09.691Z,9.98
2019-04-30T15:24:40.545Z,10.38
2019-04-30T15:27:09.965Z,8.80
2019-04-30T15:29:39.495Z,9.75
2019-04-30T15:32:08.946Z,9.70
2019-04-30T15:34:40.816Z,10.15
2019-04-30T15:37:19.128Z,11.43
2019-04-30T15:39:41.159Z,10.55
2019-04-30T15:42:11.114Z,9.43
2019-04-30T15:44:45.249Z,10.28
2019-04-30T15:47:12.190Z,8.00
2019-04-30T15:49:41.732Z,10.18
2019-04-30T15:52:11.292Z,7.67
2019-04-30T15:54:40.679Z,10.40
2019-04-30T15:57:10.289Z,10.68
2019-04-30T15:59:41.223Z,9.28
2019-04-30T16:02:15.172Z,9.63
2019-04-30T16:05:02.508Z,10.73
2019-04-30T16:07:31.911Z,10.43
2019-04-30T16:10:03.072Z,9.70
2019-04-30T16:12:49.585Z,10.57
2019-04-30T16:15:19.294Z,9.57
2019-04-30T16:17:50.431Z,10.20
2019-04-30T16:20:20.069Z,10.43
2019-04-30T16:22:49.591Z,9.70
2019-04-30T16:25:19.516Z,9.30
2019-04-30T16:27:49.124Z,9.80
2019-04-30T16:30:19.548Z,9.57
2019-04-30T16:32:50.712Z,9.10
2019-04-30T16:35:20.126Z,9.73
2019-04-30T16:37:49.752Z,10.43
2019-04-30T16:40:19.362Z,10.67
2019-04-30T16:42:49.058Z,10.23
2019-04-30T16:45:19.458Z,9.33
2019-04-30T16:47:49.180Z,9.77
2019-04-30T16:50:18.917Z,8.60
2019-04-30T16:52:49.826Z,9.50
2019-04-30T16:55:19.367Z,10.77
2019-04-30T16:57:50.159Z,11.90
2019-04-30T17:00:20.388Z,10.27
2019-04-30T17:02:51.485Z,9.53
2019-04-30T17:05:22.594Z,9.90
2019-04-30T17:08:01.651Z,9.83
2019-04-30T17:10:31.858Z,10.83
2019-04-30T17:13:20.752Z,10.07
2019-04-30T17:15:51.783Z,9.83
2019-04-30T17:18:21.213Z,9.63
2019-04-30T17:20:50.586Z,10.07
2019-04-30T17:23:19.972Z,9.77
2019-04-30T17:25:49.383Z,9.77
2019-04-30T17:28:18.945Z,9.53
2019-04-30T17:30:49.143Z,9.77
2019-04-30T17:33:18.680Z,9.30
2019-04-30T17:35:49.850Z,10.13
2019-04-30T17:38:19.307Z,10.53
2019-04-30T17:40:49.673Z,9.23
2019-04-30T17:43:19.217Z,10.43
2019-04-30T17:45:49.409Z,9.63
2019-04-30T17:48:19.177Z,9.57
2019-04-30T17:50:49.756Z,9.97
2019-04-30T17:53:19.309Z,9.77
2019-04-30T17:55:49.135Z,11.23
2019-04-30T17:58:20.676Z,11.07
2019-04-30T18:00:51.339Z,7.00
2019-04-30T18:03:20.707Z,8.03
2019-04-30T18:05:50.261Z,9.73
2019-04-30T18:08:19.763Z,9.80
2019-04-30T18:10:49.240Z,9.20
2019-04-30T18:13:18.645Z,10.03
2019-04-30T18:15:48.402Z,9.63
2019-04-30T18:18:19.661Z,8.53
2019-04-30T18:21:06.784Z,9.80
2019-04-30T18:23:50.522Z,8.37
2019-04-30T18:26:19.977Z,9.20
2019-04-30T18:28:49.378Z,9.67
2019-04-30T18:31:18.773Z,9.20
2019-04-30T18:33:49.282Z,8.77
2019-04-30T18:36:19.531Z,8.47
2019-04-30T18:38:50.287Z,8.60
2019-04-30T18:41:19.731Z,8.83
2019-04-30T18:43:49.285Z,9.87
2019-04-30T18:46:19.179Z,9.13
2019-04-30T18:48:49.421Z,9.60
2019-04-30T18:51:33.780Z,11.20
2019-04-30T18:53:51.205Z,8.97
2019-04-30T18:56:20.661Z,9.47
2019-04-30T18:58:50.047Z,10.07
2019-04-30T19:01:19.558Z,10.10
2019-04-30T19:03:49.285Z,10.23
2019-04-30T19:06:26.206Z,9.63
2019-04-30T19:08:56.430Z,10.40
2019-04-30T19:11:28.950Z,10.10
2019-04-30T19:14:16.295Z,9.33
2019-04-30T19:16:49.893Z,10.27
2019-04-30T19:19:23.707Z,9.43
2019-04-30T19:21:53.169Z,9.87
2019-04-30T19:24:22.568Z,9.10
2019-04-30T19:26:52.062Z,9.70
2019-04-30T19:29:21.545Z,9.83
2019-04-30T19:31:51.101Z,10.30
2019-04-30T19:34:20.600Z,10.67
2019-04-30T19:36:50.144Z,9.87
2019-04-30T19:39:19.942Z,10.13
2019-04-30T19:41:49.681Z,10.60
2019-04-30T19:44:20.847Z,11.37
2019-04-30T19:46:50.471Z,11.67
2019-04-30T19:49:19.866Z,6.97
2019-04-30T19:51:49.572Z,12.47
2019-04-30T19:54:20.712Z,12.67
2019-04-30T19:56:50.538Z,14.30
2019-04-30T19:59:20.361Z,14.67
2019-04-30T20:01:50.935Z,14.20
2019-04-30T20:04:32.630Z,13.23
2019-04-30T20:06:51.709Z,12.90
2019-04-30T20:09:21.128Z,12.80
2019-04-30T20:11:50.564Z,13.90
2019-04-30T20:14:19.919Z,14.43
2019-04-30T20:16:49.311Z,14.43
2019-04-30T20:19:18.693Z,14.40
2019-04-30T20:21:53.499Z,13.73
2019-04-30T20:24:21.150Z,14.47
2019-04-30T20:26:51.657Z,14.50
2019-04-30T20:29:21.505Z,14.40
2019-04-30T20:31:51.054Z,13.97
2019-04-30T20:34:20.433Z,15.47
2019-04-30T20:36:50.028Z,15.03
2019-04-30T20:39:29.266Z,15.53
2019-04-30T20:41:58.754Z,15.07
2019-04-30T20:44:29.130Z,16.60
2019-04-30T20:46:59.088Z,15.73
2019-04-30T20:49:30.495Z,16.07
2019-04-30T20:51:59.954Z,16.23
2019-04-30T20:54:29.338Z,17.23
2019-04-30T20:56:59.105Z,16.77
2019-04-30T20:59:29.019Z,16.53
2019-04-30T21:01:58.569Z,15.77
2019-04-30T21:04:27.947Z,16.30
2019-04-30T21:06:59.364Z,16.47
2019-04-30T21:09:28.613Z,17.07
2019-04-30T21:11:58.802Z,16.57
2019-04-30T21:14:28.254Z,16.30
2019-04-30T21:16:57.666Z,16.80
2019-04-30T21:19:27.035Z,15.47
2019-04-30T21:21:56.442Z,16.23
2019-04-30T21:24:25.851Z,17.53
2019-04-30T21:26:55.228Z,17.00
2019-04-30T21:29:24.631Z,17.33
2019-04-30T21:32:07.867Z,16.87
2019-04-30T21:34:41.427Z,17.37
2019-04-30T21:37:10.859Z,16.47
2019-04-30T21:39:40.309Z,18.50
2019-04-30T21:42:09.658Z,17.73
2019-04-30T21:44:39.073Z,17.60
2019-04-30T21:47:08.447Z,17.47
2019-04-30T21:49:37.859Z,17.70
2019-04-30T21:52:07.381Z,17.93
2019-04-30T21:54:38.372Z,17.53
2019-04-30T21:57:07.922Z,17.67
2019-04-30T21:59:38.822Z,17.80
2019-04-30T22:02:09.706Z,18.03
2019-04-30T22:04:39.093Z,17.13
2019-04-30T22:07:09.400Z,17.93
2019-04-30T22:09:38.890Z,16.87
2019-04-30T22:12:09.172Z,16.97
2019-04-30T22:14:38.703Z,16.70
2019-04-30T22:17:09.286Z,16.83
2019-04-30T22:19:38.783Z,17.60
2019-04-30T22:22:09.397Z,17.47
2019-04-30T22:24:38.956Z,17.67
2019-04-30T22:27:08.391Z,18.00
2019-04-30T22:29:41.889Z,18.07
2019-04-30T22:32:09.390Z,17.40
2019-04-30T22:34:38.807Z,17.73
2019-04-30T22:37:08.590Z,16.87
2019-04-30T22:39:39.838Z,16.83
2019-04-30T22:42:29.834Z,17.67
2019-04-30T22:45:00.334Z,17.73
2019-04-30T22:47:30.750Z,17.90
2019-04-30T22:50:00.132Z,17.57
2019-04-30T22:52:29.510Z,18.53
2019-04-30T22:54:58.883Z,19.17
2019-04-30T22:57:28.280Z,17.73
2019-04-30T22:59:57.702Z,18.47
2019-04-30T23:02:31.314Z,19.53
2019-04-30T23:05:02.352Z,18.80
2019-04-30T23:07:31.845Z,18.53
2019-04-30T23:10:01.253Z,19.90
2019-04-30T23:12:30.625Z,17.47
2019-04-30T23:15:00.001Z,16.30
2019-04-30T23:17:29.459Z,17.33
2019-04-30T23:19:58.897Z,18.17
2019-04-30T23:22:28.322Z,17.40
2019-04-30T23:24:57.679Z,17.43
2019-04-30T23:27:27.076Z,17.47
2019-04-30T23:30:03.059Z,20.50
2019-04-30T23:32:27.596Z,17.90
2019-04-30T23:34:56.999Z,19.50
2019-04-30T23:37:26.458Z,20.40
2019-04-30T23:39:55.984Z,19.83
2019-04-30T23:42:25.439Z,18.10
2019-04-30T23:44:54.823Z,18.33
2019-04-30T23:47:24.257Z,19.10
2019-04-30T23:49:53.638Z,19.57
2019-04-30T23:52:23.046Z,19.37
2019-04-30T23:54:52.424Z,19.30
2019-04-30T23:57:21.805Z,19.90
2019-04-30T23:59:51.205Z,17.83
